createdAt,value
2019-01-31T00:02:52.178Z,93623.00
2019-01-31T00:05:28.013Z,93629.11
2019-01-31T00:08:21.095Z,93628.80
2019-01-31T00:11:42.618Z,93638.94
2019-01-31T00:14:22.077Z,93640.12
2019-01-31T00:17:03.556Z,93645.48
2019-01-31T00:19:38.250Z,93633.86
2019-01-31T00:22:52.740Z,93638.78
2019-01-31T00:25:50.513Z,93649.67
2019-01-31T00:29:14.503Z,93657.41
2019-01-31T00:32:02.250Z,93665.13
2019-01-31T00:35:14.412Z,93670.58
2019-01-31T00:37:54.521Z,93669.24
2019-01-31T00:41:09.846Z,93662.21
2019-01-31T00:44:46.328Z,93665.34
2019-01-31T00:47:51.075Z,93670.05
2019-01-31T00:50:49.899Z,93676.27
2019-01-31T00:53:33.986Z,93659.46
2019-01-31T00:56:43.046Z,93672.38
2019-01-31T00:59:53.811Z,93677.42
2019-01-31T01:03:02.028Z,93679.22
2019-01-31T01:06:07.590Z,93670.33
2019-01-31T01:08:42.615Z,93677.99
2019-01-31T01:11:45.528Z,93667.09
2019-01-31T01:14:40.582Z,93667.97
2019-01-31T01:17:38.011Z,93672.58
2019-01-31T01:20:56.221Z,93675.52
2019-01-31T01:23:33.585Z,93667.32
2019-01-31T01:26:29.851Z,93663.30
2019-01-31T01:29:24.737Z,93664.50
2019-01-31T01:32:54.844Z,93654.08
2019-01-31T01:35:37.137Z,93658.83
2019-01-31T01:38:32.904Z,93663.41
2019-01-31T01:41:40.658Z,93649.50
2019-01-31T01:44:51.789Z,93642.11
2019-01-31T01:47:32.834Z,93643.17
2019-01-31T01:50:38.159Z,93641.23
2019-01-31T01:53:53.143Z,93647.63
2019-01-31T01:56:54.694Z,93652.84
2019-01-31T01:59:51.075Z,93650.05
2019-01-31T02:02:48.222Z,93641.24
2019-01-31T02:05:47.465Z,93650.19
2019-01-31T02:09:14.710Z,93655.50
2019-01-31T02:11:55.367Z,93661.86
2019-01-31T02:15:05.611Z,93663.62
2019-01-31T02:18:01.376Z,93662.82
2019-01-31T02:20:47.753Z,93669.63
2019-01-31T02:23:59.874Z,93670.21
2019-01-31T02:27:00.067Z,93672.39
2019-01-31T02:29:37.895Z,93668.17
2019-01-31T02:32:48.909Z,93662.30
2019-01-31T02:35:58.162Z,93672.59
2019-01-31T02:38:56.764Z,93671.70
2019-01-31T02:42:03.418Z,93675.19
2019-01-31T02:44:53.630Z,93680.28
2019-01-31T02:47:52.303Z,93674.98
2019-01-31T02:51:00.624Z,93669.89
2019-01-31T02:53:41.791Z,93661.67
2019-01-31T02:56:36.438Z,93664.55
2019-01-31T02:59:33.033Z,93648.12
2019-01-31T03:02:39.313Z,93651.17
2019-01-31T03:05:28.859Z,93651.86
2019-01-31T03:08:49.729Z,93646.03
2019-01-31T03:11:57.424Z,93652.23
2019-01-31T03:14:46.516Z,93638.67
2019-01-31T03:18:03.504Z,93646.63
2019-01-31T03:20:54.283Z,93646.20
2019-01-31T03:23:54.785Z,93645.92
2019-01-31T03:26:51.190Z,93641.27
2019-01-31T03:30:06.971Z,93641.24
2019-01-31T03:32:49.976Z,93646.68
2019-01-31T03:35:33.706Z,93650.58
2019-01-31T03:38:22.825Z,93651.23
2019-01-31T03:41:49.984Z,93646.53
2019-01-31T03:44:49.477Z,93651.88
2019-01-31T03:47:54.207Z,93662.70
2019-01-31T03:50:43.352Z,93669.58
2019-01-31T03:53:48.491Z,93662.44
2019-01-31T03:56:41.447Z,93664.66
2019-01-31T03:59:31.428Z,93654.31
2019-01-31T04:02:52.819Z,93648.77
2019-01-31T04:05:43.030Z,93640.80
2019-01-31T04:08:10.536Z,93646.27
2019-01-31T04:10:37.995Z,93646.78
2019-01-31T04:13:05.424Z,93636.97
2019-01-31T04:15:32.966Z,93633.30
2019-01-31T04:18:00.476Z,93635.37
2019-01-31T04:20:27.951Z,93626.54
2019-01-31T04:22:55.349Z,93630.48
2019-01-31T04:25:22.870Z,93639.23
2019-01-31T04:27:50.299Z,93635.00
2019-01-31T04:30:17.984Z,93631.86
2019-01-31T04:32:45.652Z,93622.31
2019-01-31T04:35:13.366Z,93625.60
2019-01-31T04:37:40.781Z,93634.42
2019-01-31T04:40:08.667Z,93636.30
2019-01-31T04:42:36.276Z,93641.39
2019-01-31T04:45:04.865Z,93643.24
2019-01-31T04:47:32.307Z,93644.38
2019-01-31T04:49:59.783Z,93642.73
2019-01-31T04:52:27.337Z,93637.02
2019-01-31T04:54:54.796Z,93639.52
2019-01-31T04:57:22.260Z,93631.67
2019-01-31T04:59:49.641Z,93627.63
2019-01-31T05:02:17.177Z,93632.44
2019-01-31T05:04:44.807Z,93626.52
2019-01-31T05:07:12.194Z,93624.53
2019-01-31T05:09:39.647Z,93636.33
2019-01-31T05:12:07.072Z,93629.58
2019-01-31T05:14:34.483Z,93636.23
2019-01-31T05:17:02.002Z,93653.83
2019-01-31T05:19:29.477Z,93674.69
2019-01-31T05:21:56.927Z,93664.81
2019-01-31T05:24:24.388Z,93667.20
2019-01-31T05:26:51.927Z,93661.08
2019-01-31T05:29:19.350Z,93656.87
2019-01-31T05:31:46.805Z,93654.27
2019-01-31T05:34:14.341Z,93660.88
2019-01-31T05:36:41.899Z,93670.41
2019-01-31T05:39:09.389Z,93658.58
2019-01-31T05:41:36.762Z,93663.19
2019-01-31T05:44:04.455Z,93675.91
2019-01-31T05:46:31.868Z,93674.22
2019-01-31T05:48:59.242Z,93675.07
2019-01-31T05:51:26.712Z,93677.73
2019-01-31T05:53:54.168Z,93672.06
2019-01-31T05:56:21.647Z,93676.92
2019-01-31T05:58:49.038Z,93677.65
2019-01-31T06:01:16.754Z,93686.03
2019-01-31T06:03:44.917Z,93676.78
2019-01-31T06:06:12.437Z,93676.59
2019-01-31T06:08:39.791Z,93681.56
2019-01-31T06:11:08.056Z,93674.36
2019-01-31T06:13:35.900Z,93677.38
2019-01-31T06:16:06.784Z,93690.34
2019-01-31T06:18:34.011Z,93681.83
2019-01-31T06:21:01.456Z,93676.33
2019-01-31T06:23:28.978Z,93667.98
2019-01-31T06:25:56.457Z,93682.23
2019-01-31T06:28:24.021Z,93674.58
2019-01-31T06:30:51.628Z,93675.73
2019-01-31T06:33:19.164Z,93685.98
2019-01-31T06:35:46.555Z,93696.94
2019-01-31T06:38:14.183Z,93701.30
2019-01-31T06:40:41.729Z,93698.94
2019-01-31T06:43:12.088Z,93711.08
2019-01-31T06:45:39.403Z,93706.41
2019-01-31T06:48:06.962Z,93708.58
2019-01-31T06:50:34.449Z,93708.64
2019-01-31T06:53:01.939Z,93722.47
2019-01-31T06:55:29.590Z,93713.80
2019-01-31T06:57:57.049Z,93707.09
2019-01-31T07:00:24.529Z,93704.30
2019-01-31T07:02:52.378Z,93711.33
2019-01-31T07:05:19.859Z,93696.14
2019-01-31T07:07:47.365Z,93707.63
2019-01-31T07:10:17.708Z,93704.78
2019-01-31T07:12:45.107Z,93712.97
2019-01-31T07:15:12.956Z,93718.38
2019-01-31T07:17:40.577Z,93728.23
2019-01-31T07:20:10.229Z,93725.25
2019-01-31T07:22:37.634Z,93738.77
2019-01-31T07:25:05.628Z,93734.26
2019-01-31T07:27:33.121Z,93727.66
2019-01-31T07:30:00.601Z,93734.08
2019-01-31T07:32:28.229Z,93730.06
2019-01-31T07:34:55.608Z,93726.66
2019-01-31T07:37:23.098Z,93717.87
2019-01-31T07:39:50.753Z,93722.07
2019-01-31T07:42:18.206Z,93725.64
2019-01-31T07:44:45.680Z,93723.70
2019-01-31T07:47:13.145Z,93726.41
2019-01-31T07:49:40.733Z,93727.00
2019-01-31T07:52:08.118Z,93726.98
2019-01-31T07:54:35.544Z,93724.31
2019-01-31T07:57:03.517Z,93723.89
2019-01-31T07:59:38.686Z,93725.38
2019-01-31T08:02:09.545Z,93718.80
2019-01-31T08:04:43.381Z,93708.96
2019-01-31T08:07:12.721Z,93721.78
2019-01-31T08:09:46.620Z,93718.51
2019-01-31T08:12:21.879Z,93706.88
2019-01-31T08:14:49.359Z,93716.13
2019-01-31T08:17:16.834Z,93709.42
2019-01-31T08:19:44.285Z,93704.48
2019-01-31T08:22:11.748Z,93705.24
2019-01-31T08:24:39.229Z,93705.09
2019-01-31T08:27:06.586Z,93708.94
2019-01-31T08:29:34.059Z,93708.58
2019-01-31T08:32:01.679Z,93708.44
2019-01-31T08:34:29.095Z,93713.69
2019-01-31T08:36:56.698Z,93723.53
2019-01-31T08:39:24.485Z,93717.00
2019-01-31T08:42:03.224Z,93719.14
2019-01-31T08:44:22.021Z,93724.68
2019-01-31T08:46:49.481Z,93720.97
2019-01-31T08:49:17.368Z,93721.11
2019-01-31T08:51:44.896Z,93726.48
2019-01-31T08:54:12.453Z,93725.52
2019-01-31T08:56:40.781Z,93727.46
2019-01-31T08:59:09.061Z,93726.66
2019-01-31T09:01:36.508Z,93722.98
2019-01-31T09:04:04.156Z,93727.72
2019-01-31T09:06:31.635Z,93730.48
2019-01-31T09:08:59.098Z,93725.58
2019-01-31T09:11:26.977Z,93727.58
2019-01-31T09:13:54.533Z,93724.34
2019-01-31T09:16:22.324Z,93717.53
2019-01-31T09:18:49.974Z,93730.31
2019-01-31T09:21:34.887Z,93724.23
2019-01-31T09:24:29.302Z,93727.95
2019-01-31T09:27:26.668Z,93720.39
2019-01-31T09:30:44.633Z,93721.87
2019-01-31T09:33:47.593Z,93723.80
2019-01-31T09:36:36.579Z,93726.08
2019-01-31T09:39:48.759Z,93722.45
2019-01-31T09:42:48.026Z,93724.36
2019-01-31T09:45:36.756Z,93712.53
2019-01-31T09:48:41.557Z,93716.83
2019-01-31T09:51:47.910Z,93708.84
2019-01-31T09:54:36.655Z,93712.85
2019-01-31T09:57:53.295Z,93719.97
2019-01-31T10:01:17.777Z,93718.50
2019-01-31T10:04:22.625Z,93708.17
2019-01-31T10:07:17.862Z,93709.39
2019-01-31T10:10:18.815Z,93704.89
2019-01-31T10:13:29.576Z,93709.39
2019-01-31T10:16:09.376Z,93695.36
2019-01-31T10:19:15.619Z,93695.88
2019-01-31T10:22:18.857Z,93692.40
2019-01-31T10:25:19.854Z,93691.58
2019-01-31T10:28:24.601Z,93687.22
2019-01-31T10:31:46.656Z,93688.86
2019-01-31T10:34:44.165Z,93686.08
2019-01-31T10:37:44.430Z,93688.36
2019-01-31T10:40:29.954Z,93682.41
2019-01-31T10:43:20.500Z,93681.47
2019-01-31T10:46:32.703Z,93690.30
2019-01-31T10:49:37.608Z,93676.73
2019-01-31T10:52:34.210Z,93673.09
2019-01-31T10:55:44.565Z,93678.37
2019-01-31T10:58:48.343Z,93675.23
2019-01-31T11:02:00.065Z,93676.97
2019-01-31T11:05:30.121Z,93683.53
2019-01-31T11:08:23.428Z,93676.77
2019-01-31T11:11:21.387Z,93680.44
2019-01-31T11:14:54.730Z,93681.42
2019-01-31T11:17:56.821Z,93688.33
2019-01-31T11:21:23.863Z,93677.05
2019-01-31T11:24:05.173Z,93676.91
2019-01-31T11:27:12.854Z,93668.42
2019-01-31T11:30:07.383Z,93669.45
2019-01-31T11:33:21.473Z,93677.05
2019-01-31T11:36:33.322Z,93669.50
2019-01-31T11:39:41.283Z,93670.20
2019-01-31T11:42:40.095Z,93667.25
2019-01-31T11:45:31.022Z,93662.92
2019-01-31T11:48:54.322Z,93666.79
2019-01-31T11:52:00.135Z,93664.95
2019-01-31T11:55:10.923Z,93669.48
2019-01-31T11:58:09.610Z,93668.95
2019-01-31T12:00:37.725Z,93665.38
2019-01-31T12:03:05.298Z,93667.30
2019-01-31T12:05:33.169Z,93672.78
2019-01-31T12:08:00.761Z,93663.05
2019-01-31T12:10:28.344Z,93661.11
2019-01-31T12:12:56.035Z,93662.75
2019-01-31T12:15:23.519Z,93656.61
2019-01-31T12:17:51.068Z,93650.13
2019-01-31T12:20:18.813Z,93658.44
2019-01-31T12:22:46.479Z,93653.55
2019-01-31T12:25:14.209Z,93665.11
2019-01-31T12:27:41.973Z,93655.62
2019-01-31T12:30:14.621Z,93656.88
2019-01-31T12:32:42.197Z,93658.52
2019-01-31T12:35:09.841Z,93658.56
2019-01-31T12:37:37.310Z,93655.99
2019-01-31T12:40:08.370Z,93650.59
2019-01-31T12:42:36.154Z,93654.80
2019-01-31T12:45:04.328Z,93662.54
2019-01-31T12:47:31.761Z,93659.79
2019-01-31T12:49:59.289Z,93662.36
2019-01-31T12:52:27.125Z,93660.26
2019-01-31T12:54:54.599Z,93650.77
2019-01-31T12:57:22.187Z,93653.73
2019-01-31T12:59:49.635Z,93649.41
2019-01-31T13:02:17.255Z,93653.92
2019-01-31T13:04:44.819Z,93657.43
2019-01-31T13:07:13.228Z,93649.75
2019-01-31T13:09:40.688Z,93652.73
2019-01-31T13:12:08.542Z,93650.58
2019-01-31T13:14:36.023Z,93652.84
2019-01-31T13:17:05.917Z,93652.06
2019-01-31T13:19:33.804Z,93651.69
2019-01-31T13:22:01.259Z,93661.51
2019-01-31T13:24:28.837Z,93666.77
2019-01-31T13:26:56.457Z,93662.30
2019-01-31T13:29:24.051Z,93663.91
2019-01-31T13:31:51.550Z,93656.08
2019-01-31T13:34:19.009Z,93652.62
2019-01-31T13:36:46.431Z,93661.05
2019-01-31T13:39:15.370Z,93661.84
2019-01-31T13:41:42.840Z,93661.58
2019-01-31T13:44:10.215Z,93663.06
2019-01-31T13:46:37.705Z,93673.20
2019-01-31T13:49:05.415Z,93674.63
2019-01-31T13:51:33.014Z,93668.79
2019-01-31T13:54:00.632Z,93676.31
2019-01-31T13:56:28.077Z,93669.84
2019-01-31T13:58:55.506Z,93672.77
2019-01-31T14:01:24.017Z,93680.41
2019-01-31T14:03:51.584Z,93669.09
2019-01-31T14:06:19.101Z,93671.95
2019-01-31T14:08:46.518Z,93673.75
2019-01-31T14:11:13.973Z,93671.71
2019-01-31T14:13:41.456Z,93678.73
2019-01-31T14:16:08.927Z,93677.84
2019-01-31T14:18:36.506Z,93678.30
2019-01-31T14:21:04.197Z,93685.86
2019-01-31T14:23:31.712Z,93683.23
2019-01-31T14:25:59.227Z,93690.34
2019-01-31T14:28:26.657Z,93678.28
2019-01-31T14:30:54.153Z,93686.73
2019-01-31T14:33:25.495Z,93690.91
2019-01-31T14:35:53.536Z,93692.33
2019-01-31T14:38:21.068Z,93691.05
2019-01-31T14:40:48.544Z,93685.95
2019-01-31T14:43:16.025Z,93699.63
2019-01-31T14:45:43.528Z,93694.86
2019-01-31T14:48:10.925Z,93699.41
2019-01-31T14:50:38.536Z,93704.49
2019-01-31T14:53:06.453Z,93707.64
2019-01-31T14:55:33.916Z,93714.34
2019-01-31T14:58:01.469Z,93710.44
2019-01-31T15:00:30.296Z,93708.20
2019-01-31T15:02:57.732Z,93716.30
2019-01-31T15:05:25.161Z,93723.03
2019-01-31T15:07:52.770Z,93722.80
2019-01-31T15:10:22.805Z,93726.99
2019-01-31T15:12:50.369Z,93725.11
2019-01-31T15:15:18.051Z,93724.23
2019-01-31T15:17:45.506Z,93724.38
2019-01-31T15:20:16.873Z,93738.30
2019-01-31T15:22:45.222Z,93739.02
2019-01-31T15:25:12.942Z,93744.73
2019-01-31T15:27:40.436Z,93746.08
2019-01-31T15:30:10.351Z,93746.49
2019-01-31T15:32:37.843Z,93771.57
2019-01-31T15:35:06.150Z,93776.70
2019-01-31T15:37:33.742Z,93793.60
2019-01-31T15:40:01.210Z,93802.61
2019-01-31T15:42:28.606Z,93814.68
2019-01-31T15:44:56.074Z,93823.88
2019-01-31T15:47:23.500Z,93826.38
2019-01-31T15:49:51.049Z,93820.41
2019-01-31T15:52:18.575Z,93823.00
2019-01-31T15:54:46.195Z,93838.75
2019-01-31T15:57:16.735Z,93843.03
2019-01-31T15:59:43.109Z,93854.80
2019-01-31T16:02:10.979Z,93855.51
2019-01-31T16:04:38.604Z,93867.47
2019-01-31T16:07:06.066Z,93860.55
2019-01-31T16:09:33.493Z,93869.17
2019-01-31T16:12:01.255Z,93882.12
2019-01-31T16:14:28.891Z,93884.50
2019-01-31T16:16:56.458Z,93879.19
2019-01-31T16:19:23.934Z,93883.86
2019-01-31T16:21:51.440Z,93897.41
2019-01-31T16:24:18.905Z,93894.09
2019-01-31T16:26:46.472Z,93896.20
2019-01-31T16:29:13.950Z,93903.62
2019-01-31T16:31:41.372Z,93899.27
2019-01-31T16:34:08.875Z,93907.05
2019-01-31T16:36:36.389Z,93917.72
2019-01-31T16:39:07.849Z,93915.81
2019-01-31T16:41:35.308Z,93922.88
2019-01-31T16:44:03.269Z,93920.01
2019-01-31T16:46:30.689Z,93926.95
2019-01-31T16:48:58.219Z,93922.94
2019-01-31T16:51:25.679Z,93927.48
2019-01-31T16:53:53.222Z,93932.20
2019-01-31T16:56:20.876Z,93940.95
2019-01-31T16:58:48.409Z,93934.07
2019-01-31T17:01:16.332Z,93937.81
2019-01-31T17:03:43.902Z,93940.95
2019-01-31T17:06:12.362Z,93944.02
2019-01-31T17:08:39.820Z,93945.80
2019-01-31T17:11:07.274Z,93952.62
2019-01-31T17:13:34.725Z,93955.34
2019-01-31T17:16:02.295Z,93966.52
2019-01-31T17:18:29.734Z,93964.50
2019-01-31T17:20:57.186Z,93969.89
2019-01-31T17:23:24.673Z,93965.48
2019-01-31T17:26:01.851Z,93970.94
2019-01-31T17:28:45.912Z,93970.98
2019-01-31T17:31:13.461Z,93968.63
2019-01-31T17:33:45.794Z,93979.83
2019-01-31T17:36:13.463Z,93978.81
2019-01-31T17:38:40.907Z,93978.65
2019-01-31T17:41:08.455Z,93988.11
2019-01-31T17:43:35.936Z,93993.09
2019-01-31T17:46:03.778Z,93999.64
2019-01-31T17:48:31.251Z,93992.22
2019-01-31T17:50:58.736Z,93991.84
2019-01-31T17:53:26.384Z,94011.04
2019-01-31T17:55:53.985Z,94009.98
2019-01-31T17:58:21.674Z,94002.55
2019-01-31T18:00:57.035Z,94000.31
2019-01-31T18:03:25.164Z,94014.33
2019-01-31T18:05:53.174Z,94013.72
2019-01-31T18:08:20.654Z,94012.95
2019-01-31T18:10:48.102Z,94027.83
2019-01-31T18:13:15.540Z,94032.55
2019-01-31T18:15:43.056Z,94033.59
2019-01-31T18:18:10.510Z,94043.50
2019-01-31T18:20:37.999Z,94036.33
2019-01-31T18:23:05.394Z,94039.19
2019-01-31T18:25:33.579Z,94043.73
2019-01-31T18:28:08.381Z,94049.80
2019-01-31T18:30:36.069Z,94052.59
2019-01-31T18:33:05.799Z,94059.17
2019-01-31T18:35:33.387Z,94056.48
2019-01-31T18:38:02.240Z,94052.80
2019-01-31T18:40:30.754Z,94059.50
2019-01-31T18:42:58.322Z,94064.05
2019-01-31T18:45:28.041Z,94069.30
2019-01-31T18:48:02.188Z,94075.48
2019-01-31T18:50:34.945Z,94072.66
2019-01-31T18:53:02.842Z,94081.09
2019-01-31T18:55:30.463Z,94080.67
2019-01-31T18:57:58.358Z,94079.91
2019-01-31T19:00:31.697Z,94082.97
2019-01-31T19:02:59.437Z,94090.22
2019-01-31T19:05:26.929Z,94089.10
2019-01-31T19:07:54.667Z,94103.63
2019-01-31T19:10:23.080Z,94102.51
2019-01-31T19:12:51.305Z,94100.11
2019-01-31T19:15:19.215Z,94107.31
2019-01-31T19:17:46.793Z,94112.73
2019-01-31T19:20:17.653Z,94107.11
2019-01-31T19:22:45.080Z,94107.44
2019-01-31T19:25:12.972Z,94110.64
2019-01-31T19:27:40.374Z,94112.09
2019-01-31T19:30:13.877Z,94114.76
2019-01-31T19:32:41.338Z,94121.00
2019-01-31T19:35:08.949Z,94116.23
2019-01-31T19:37:36.598Z,94123.55
2019-01-31T19:40:05.370Z,94126.84
2019-01-31T19:42:32.804Z,94130.47
2019-01-31T19:45:00.375Z,94132.83
2019-01-31T19:47:27.816Z,94150.95
2019-01-31T19:49:55.269Z,94144.64
2019-01-31T19:52:22.672Z,94154.06
2019-01-31T19:54:50.127Z,94161.28
2019-01-31T19:57:17.707Z,94168.58
2019-01-31T19:59:45.399Z,94167.73
2019-01-31T20:02:15.797Z,94174.86
2019-01-31T20:04:42.261Z,94174.17
2019-01-31T20:07:09.943Z,94173.08
2019-01-31T20:09:37.325Z,94168.48
2019-01-31T20:12:05.756Z,94170.03
2019-01-31T20:14:33.236Z,94175.69
2019-01-31T20:17:00.824Z,94179.57
2019-01-31T20:19:28.296Z,94175.30
2019-01-31T20:21:55.756Z,94167.97
2019-01-31T20:24:23.332Z,94189.88
2019-01-31T20:26:50.784Z,94194.22
2019-01-31T20:29:18.188Z,94188.81
2019-01-31T20:31:46.178Z,94202.30
2019-01-31T20:34:13.760Z,94212.69
2019-01-31T20:36:41.545Z,94209.16
2019-01-31T20:39:09.216Z,94209.98
2019-01-31T20:41:37.409Z,94228.16
2019-01-31T20:44:05.686Z,94218.17
2019-01-31T20:46:40.285Z,94228.59
2019-01-31T20:49:03.754Z,94233.88
2019-01-31T20:51:32.248Z,94235.57
2019-01-31T20:54:00.241Z,94235.38
2019-01-31T20:56:27.679Z,94245.52
2019-01-31T20:58:55.296Z,94254.11
2019-01-31T21:01:22.792Z,94247.61
2019-01-31T21:03:50.621Z,94258.73
2019-01-31T21:06:18.090Z,94261.37
2019-01-31T21:08:45.758Z,94267.45
2019-01-31T21:11:13.455Z,94259.39
2019-01-31T21:13:41.100Z,94265.36
2019-01-31T21:16:08.667Z,94274.06
2019-01-31T21:18:36.660Z,94277.70
2019-01-31T21:21:05.332Z,94274.06
2019-01-31T21:23:32.968Z,94289.09
2019-01-31T21:26:00.732Z,94296.14
2019-01-31T21:28:28.208Z,94304.56
2019-01-31T21:30:55.577Z,94304.92
2019-01-31T21:33:23.217Z,94311.35
2019-01-31T21:35:51.048Z,94331.09
2019-01-31T21:38:18.494Z,94324.30
2019-01-31T21:40:45.893Z,94326.30
2019-01-31T21:43:13.327Z,94333.50
2019-01-31T21:45:40.797Z,94329.75
2019-01-31T21:48:09.390Z,94338.09
2019-01-31T21:50:36.947Z,94327.67
2019-01-31T21:53:04.858Z,94334.20
2019-01-31T21:55:32.400Z,94345.37
2019-01-31T21:57:59.877Z,94345.37
2019-01-31T22:00:29.875Z,94351.89
2019-01-31T22:02:57.517Z,94352.91
2019-01-31T22:05:25.308Z,94361.27
2019-01-31T22:07:52.693Z,94361.92
2019-01-31T22:10:20.328Z,94363.92
2019-01-31T22:12:48.142Z,94368.76
2019-01-31T22:15:23.866Z,94379.45
2019-01-31T22:17:51.396Z,94369.59
2019-01-31T22:20:19.054Z,94369.22
2019-01-31T22:22:46.556Z,94376.30
2019-01-31T22:25:15.854Z,94388.02
2019-01-31T22:27:43.283Z,94392.09
2019-01-31T22:30:25.322Z,94393.93
2019-01-31T22:32:52.952Z,94392.58
2019-01-31T22:35:20.457Z,94389.70
2019-01-31T22:37:47.875Z,94398.06
2019-01-31T22:40:15.980Z,94400.14
2019-01-31T22:42:43.427Z,94393.14
2019-01-31T22:45:13.298Z,94400.42
2019-01-31T22:47:40.746Z,94398.27
2019-01-31T22:50:10.465Z,94398.34
2019-01-31T22:52:37.827Z,94398.88
2019-01-31T22:55:06.502Z,94398.58
2019-01-31T22:57:33.956Z,94402.97
2019-01-31T23:00:01.368Z,94407.67
2019-01-31T23:02:28.819Z,94404.10
2019-01-31T23:04:56.299Z,94413.81
2019-01-31T23:07:23.752Z,94411.70
2019-01-31T23:09:51.277Z,94414.73
2019-01-31T23:12:18.868Z,94407.86
2019-01-31T23:14:46.344Z,94417.58
2019-01-31T23:17:13.738Z,94426.22
2019-01-31T23:19:41.138Z,94425.33
2019-01-31T23:22:08.709Z,94423.45
2019-01-31T23:24:36.226Z,94414.21
2019-01-31T23:27:03.732Z,94419.89
2019-01-31T23:29:31.298Z,94421.59
2019-01-31T23:31:58.805Z,94428.09
2019-01-31T23:34:26.268Z,94429.05
2019-01-31T23:36:53.755Z,94435.97
2019-01-31T23:39:21.309Z,94436.02
2019-01-31T23:41:48.848Z,94435.20
2019-01-31T23:44:16.304Z,94435.20
2019-01-31T23:46:43.836Z,94428.56
2019-01-31T23:49:11.307Z,94433.05
2019-01-31T23:51:38.808Z,94433.30
2019-01-31T23:54:06.367Z,94434.39
2019-01-31T23:56:33.814Z,94438.56
2019-01-31T23:59:01.355Z,94440.30
